sensor_id;sensor_type;location;lat;lon;timestamp;temperature;humidity
68691;DHT22;55675;49.588;8.640;2022-11-20T00:01:23;6.60;93.30
68691;DHT22;55675;49.588;8.640;2022-11-20T00:03:52;6.60;93.40
68691;DHT22;55675;49.588;8.640;2022-11-20T00:06:19;6.60;93.40
68691;DHT22;55675;49.588;8.640;2022-11-20T00:08:45;6.50;93.30
68691;DHT22;55675;49.588;8.640;2022-11-20T00:11:15;6.50;93.30
68691;DHT22;55675;49.588;8.640;2022-11-20T00:13:45;6.50;93.70
68691;DHT22;55675;49.588;8.640;2022-11-20T00:16:13;6.50;93.40
68691;DHT22;55675;49.588;8.640;2022-11-20T00:18:39;6.40;93.40
68691;DHT22;55675;49.588;8.640;2022-11-20T00:21:07;6.40;93.60
68691;DHT22;55675;49.588;8.640;2022-11-20T00:23:33;6.40;93.70
68691;DHT22;55675;49.588;8.640;2022-11-20T00:26:06;6.50;93.80
68691;DHT22;55675;49.588;8.640;2022-11-20T00:28:32;6.60;93.80
68691;DHT22;55675;49.588;8.640;2022-11-20T00:31:03;6.70;93.70
68691;DHT22;55675;49.588;8.640;2022-11-20T00:33:29;6.70;93.40
68691;DHT22;55675;49.588;8.640;2022-11-20T00:36:02;6.80;93.40
68691;DHT22;55675;49.588;8.640;2022-11-20T00:38:30;6.80;93.60
68691;DHT22;55675;49.588;8.640;2022-11-20T00:41:00;6.80;93.60
68691;DHT22;55675;49.588;8.640;2022-11-20T00:43:27;6.90;93.70
68691;DHT22;55675;49.588;8.640;2022-11-20T00:46:03;6.90;93.70
68691;DHT22;55675;49.588;8.640;2022-11-20T00:48:29;6.90;93.60
68691;DHT22;55675;49.588;8.640;2022-11-20T00:50:55;7.00;93.60
68691;DHT22;55675;49.588;8.640;2022-11-20T00:53:21;7.00;93.70
68691;DHT22;55675;49.588;8.640;2022-11-20T00:55:57;6.90;93.00
68691;DHT22;55675;49.588;8.640;2022-11-20T00:58:24;6.80;93.10
68691;DHT22;55675;49.588;8.640;2022-11-20T01:00:50;6.80;93.30
68691;DHT22;55675;49.588;8.640;2022-11-20T01:03:17;6.80;93.40
68691;DHT22;55675;49.588;8.640;2022-11-20T01:05:42;6.70;93.40
68691;DHT22;55675;49.588;8.640;2022-11-20T01:08:08;6.70;93.50
68691;DHT22;55675;49.588;8.640;2022-11-20T01:10:34;6.80;93.60
68691;DHT22;55675;49.588;8.640;2022-11-20T01:12:59;6.70;93.30
68691;DHT22;55675;49.588;8.640;2022-11-20T01:15:43;6.60;93.50
68691;DHT22;55675;49.588;8.640;2022-11-20T01:18:09;6.60;93.50
68691;DHT22;55675;49.588;8.640;2022-11-20T01:20:35;6.70;93.60
68691;DHT22;55675;49.588;8.640;2022-11-20T01:23:02;6.60;93.60
68691;DHT22;55675;49.588;8.640;2022-11-20T01:25:28;6.60;93.30
68691;DHT22;55675;49.588;8.640;2022-11-20T01:27:53;6.60;93.60
68691;DHT22;55675;49.588;8.640;2022-11-20T01:30:19;6.70;93.50
68691;DHT22;55675;49.588;8.640;2022-11-20T01:32:44;6.70;93.60
68691;DHT22;55675;49.588;8.640;2022-11-20T01:35:10;6.70;93.40
68691;DHT22;55675;49.588;8.640;2022-11-20T01:37:36;6.80;93.30
68691;DHT22;55675;49.588;8.640;2022-11-20T01:40:02;6.80;93.30
68691;DHT22;55675;49.588;8.640;2022-11-20T01:42:28;6.80;93.30
68691;DHT22;55675;49.588;8.640;2022-11-20T01:45:50;6.80;93.30
68691;DHT22;55675;49.588;8.640;2022-11-20T01:48:19;6.90;93.40
68691;DHT22;55675;49.588;8.640;2022-11-20T01:50:46;6.90;93.40
68691;DHT22;55675;49.588;8.640;2022-11-20T01:53:15;6.90;93.40
68691;DHT22;55675;49.588;8.640;2022-11-20T01:55:46;7.00;93.40
68691;DHT22;55675;49.588;8.640;2022-11-20T01:58:12;7.00;93.40
68691;DHT22;55675;49.588;8.640;2022-11-20T02:00:39;7.10;93.40
68691;DHT22;55675;49.588;8.640;2022-11-20T02:03:11;7.10;93.50
68691;DHT22;55675;49.588;8.640;2022-11-20T02:06:00;7.10;93.50
68691;DHT22;55675;49.588;8.640;2022-11-20T02:08:28;7.20;93.50
68691;DHT22;55675;49.588;8.640;2022-11-20T02:10:53;7.20;93.50
68691;DHT22;55675;49.588;8.640;2022-11-20T02:13:19;7.10;93.40
68691;DHT22;55675;49.588;8.640;2022-11-20T02:16:03;7.10;93.50
68691;DHT22;55675;49.588;8.640;2022-11-20T02:18:30;7.10;93.50
68691;DHT22;55675;49.588;8.640;2022-11-20T02:21:13;7.20;93.60
68691;DHT22;55675;49.588;8.640;2022-11-20T02:24:01;7.20;93.50
68691;DHT22;55675;49.588;8.640;2022-11-20T02:26:28;7.30;93.50
68691;DHT22;55675;49.588;8.640;2022-11-20T02:28:55;7.30;93.50
68691;DHT22;55675;49.588;8.640;2022-11-20T02:31:20;7.20;93.40
68691;DHT22;55675;49.588;8.640;2022-11-20T02:33:46;7.20;93.50
68691;DHT22;55675;49.588;8.640;2022-11-20T02:36:14;7.20;93.40
68691;DHT22;55675;49.588;8.640;2022-11-20T02:38:41;7.20;93.50
68691;DHT22;55675;49.588;8.640;2022-11-20T02:41:07;7.20;93.60
68691;DHT22;55675;49.588;8.640;2022-11-20T02:43:32;7.20;93.60
68691;DHT22;55675;49.588;8.640;2022-11-20T02:45:58;7.20;93.50
68691;DHT22;55675;49.588;8.640;2022-11-20T02:48:23;7.20;93.50
68691;DHT22;55675;49.588;8.640;2022-11-20T02:50:49;7.20;93.60
68691;DHT22;55675;49.588;8.640;2022-11-20T02:53:14;7.20;93.60
68691;DHT22;55675;49.588;8.640;2022-11-20T02:55:40;7.20;93.40
68691;DHT22;55675;49.588;8.640;2022-11-20T02:58:05;7.20;93.30
68691;DHT22;55675;49.588;8.640;2022-11-20T03:00:31;7.20;93.40
68691;DHT22;55675;49.588;8.640;2022-11-20T03:02:57;7.20;93.20
68691;DHT22;55675;49.588;8.640;2022-11-20T03:05:22;7.20;93.10
68691;DHT22;55675;49.588;8.640;2022-11-20T03:07:48;7.20;93.10
68691;DHT22;55675;49.588;8.640;2022-11-20T03:10:14;7.20;93.20
68691;DHT22;55675;49.588;8.640;2022-11-20T03:12:39;7.30;93.20
68691;DHT22;55675;49.588;8.640;2022-11-20T03:15:05;7.30;93.10
68691;DHT22;55675;49.588;8.640;2022-11-20T03:17:30;7.30;93.10
68691;DHT22;55675;49.588;8.640;2022-11-20T03:19:56;7.30;93.20
68691;DHT22;55675;49.588;8.640;2022-11-20T03:22:22;7.30;93.10
68691;DHT22;55675;49.588;8.640;2022-11-20T03:24:47;7.30;93.00
68691;DHT22;55675;49.588;8.640;2022-11-20T03:27:13;7.30;92.80
68691;DHT22;55675;49.588;8.640;2022-11-20T03:29:38;7.30;92.90
68691;DHT22;55675;49.588;8.640;2022-11-20T03:32:04;7.30;93.00
68691;DHT22;55675;49.588;8.640;2022-11-20T03:34:30;7.30;93.00
68691;DHT22;55675;49.588;8.640;2022-11-20T03:36:55;7.30;93.20
68691;DHT22;55675;49.588;8.640;2022-11-20T03:39:21;7.30;93.20
68691;DHT22;55675;49.588;8.640;2022-11-20T03:41:46;7.30;93.20
68691;DHT22;55675;49.588;8.640;2022-11-20T03:44:12;7.30;93.10
68691;DHT22;55675;49.588;8.640;2022-11-20T03:46:38;7.20;93.00
68691;DHT22;55675;49.588;8.640;2022-11-20T03:49:04;7.20;93.20
68691;DHT22;55675;49.588;8.640;2022-11-20T03:51:32;7.20;93.30
68691;DHT22;55675;49.588;8.640;2022-11-20T03:53:59;7.20;93.30
68691;DHT22;55675;49.588;8.640;2022-11-20T03:56:28;7.20;93.30
68691;DHT22;55675;49.588;8.640;2022-11-20T03:58:53;7.20;93.20
68691;DHT22;55675;49.588;8.640;2022-11-20T04:01:21;7.10;93.20
68691;DHT22;55675;49.588;8.640;2022-11-20T04:03:48;7.10;93.30
68691;DHT22;55675;49.588;8.640;2022-11-20T04:06:22;7.10;93.30
68691;DHT22;55675;49.588;8.640;2022-11-20T04:08:48;7.20;93.40
68691;DHT22;55675;49.588;8.640;2022-11-20T04:11:18;7.10;93.30
68691;DHT22;55675;49.588;8.640;2022-11-20T04:13:48;7.20;93.50
68691;DHT22;55675;49.588;8.640;2022-11-20T04:16:13;7.20;93.50
68691;DHT22;55675;49.588;8.640;2022-11-20T04:18:39;7.30;93.40
68691;DHT22;55675;49.588;8.640;2022-11-20T04:21:05;7.30;93.40
68691;DHT22;55675;49.588;8.640;2022-11-20T04:23:31;7.30;93.40
68691;DHT22;55675;49.588;8.640;2022-11-20T04:26:11;7.40;93.30
68691;DHT22;55675;49.588;8.640;2022-11-20T04:28:37;7.40;93.30
68691;DHT22;55675;49.588;8.640;2022-11-20T04:31:18;7.40;93.30
68691;DHT22;55675;49.588;8.640;2022-11-20T04:33:44;7.40;93.40
68691;DHT22;55675;49.588;8.640;2022-11-20T04:36:12;7.40;93.70
68691;DHT22;55675;49.588;8.640;2022-11-20T04:38:39;7.50;93.40
68691;DHT22;55675;49.588;8.640;2022-11-20T04:41:06;7.50;93.80
68691;DHT22;55675;49.588;8.640;2022-11-20T04:43:32;7.50;93.40
68691;DHT22;55675;49.588;8.640;2022-11-20T04:45:59;7.50;93.40
68691;DHT22;55675;49.588;8.640;2022-11-20T04:48:26;7.50;93.40
68691;DHT22;55675;49.588;8.640;2022-11-20T04:50:52;7.60;93.30
68691;DHT22;55675;49.588;8.640;2022-11-20T04:53:18;7.60;93.30
68691;DHT22;55675;49.588;8.640;2022-11-20T04:55:44;7.60;93.20
68691;DHT22;55675;49.588;8.640;2022-11-20T04:58:09;7.60;93.30
68691;DHT22;55675;49.588;8.640;2022-11-20T05:00:35;7.60;93.20
68691;DHT22;55675;49.588;8.640;2022-11-20T05:03:01;7.60;93.20
68691;DHT22;55675;49.588;8.640;2022-11-20T05:05:26;7.70;93.20
68691;DHT22;55675;49.588;8.640;2022-11-20T05:07:52;7.70;93.20
68691;DHT22;55675;49.588;8.640;2022-11-20T05:10:17;7.70;93.30
68691;DHT22;55675;49.588;8.640;2022-11-20T05:12:43;7.70;93.30
68691;DHT22;55675;49.588;8.640;2022-11-20T05:15:09;7.70;93.30
68691;DHT22;55675;49.588;8.640;2022-11-20T05:17:34;7.70;93.30
68691;DHT22;55675;49.588;8.640;2022-11-20T05:20:00;7.80;93.30
68691;DHT22;55675;49.588;8.640;2022-11-20T05:22:25;7.70;93.20
68691;DHT22;55675;49.588;8.640;2022-11-20T05:24:51;7.80;93.30
68691;DHT22;55675;49.588;8.640;2022-11-20T05:27:16;7.80;93.30
68691;DHT22;55675;49.588;8.640;2022-11-20T05:29:42;7.80;93.40
68691;DHT22;55675;49.588;8.640;2022-11-20T05:32:07;7.80;93.30
68691;DHT22;55675;49.588;8.640;2022-11-20T05:34:35;7.80;93.30
68691;DHT22;55675;49.588;8.640;2022-11-20T05:37:00;7.70;93.40
68691;DHT22;55675;49.588;8.640;2022-11-20T05:39:26;7.80;93.40
68691;DHT22;55675;49.588;8.640;2022-11-20T05:41:52;7.80;93.40
68691;DHT22;55675;49.588;8.640;2022-11-20T05:44:37;7.80;93.40
68691;DHT22;55675;49.588;8.640;2022-11-20T05:47:03;7.80;93.30
68691;DHT22;55675;49.588;8.640;2022-11-20T05:49:28;7.80;93.30
68691;DHT22;55675;49.588;8.640;2022-11-20T05:51:53;7.80;93.30
68691;DHT22;55675;49.588;8.640;2022-11-20T05:54:19;7.80;93.20
68691;DHT22;55675;49.588;8.640;2022-11-20T05:56:44;7.80;93.20
68691;DHT22;55675;49.588;8.640;2022-11-20T05:59:10;7.80;93.10
68691;DHT22;55675;49.588;8.640;2022-11-20T06:01:35;7.80;93.00
68691;DHT22;55675;49.588;8.640;2022-11-20T06:04:01;7.80;92.90
68691;DHT22;55675;49.588;8.640;2022-11-20T06:06:27;7.70;92.90
68691;DHT22;55675;49.588;8.640;2022-11-20T06:08:53;7.70;93.10
68691;DHT22;55675;49.588;8.640;2022-11-20T06:11:18;7.70;93.10
68691;DHT22;55675;49.588;8.640;2022-11-20T06:13:45;7.70;93.20
68691;DHT22;55675;49.588;8.640;2022-11-20T06:16:12;7.60;93.30
68691;DHT22;55675;49.588;8.640;2022-11-20T06:18:38;7.70;93.30
68691;DHT22;55675;49.588;8.640;2022-11-20T06:21:16;7.60;93.20
68691;DHT22;55675;49.588;8.640;2022-11-20T06:23:42;7.60;93.30
68691;DHT22;55675;49.588;8.640;2022-11-20T06:26:14;7.60;93.40
68691;DHT22;55675;49.588;8.640;2022-11-20T06:28:39;7.60;93.50
68691;DHT22;55675;49.588;8.640;2022-11-20T06:31:06;7.70;93.50
68691;DHT22;55675;49.588;8.640;2022-11-20T06:33:32;7.70;93.50
68691;DHT22;55675;49.588;8.640;2022-11-20T06:35:59;7.80;93.30
68691;DHT22;55675;49.588;8.640;2022-11-20T06:38:25;7.70;93.40
68691;DHT22;55675;49.588;8.640;2022-11-20T06:40:51;7.80;93.50
68691;DHT22;55675;49.588;8.640;2022-11-20T06:43:17;7.80;93.40
68691;DHT22;55675;49.588;8.640;2022-11-20T06:45:42;7.80;93.40
68691;DHT22;55675;49.588;8.640;2022-11-20T06:48:08;7.90;93.40
68691;DHT22;55675;49.588;8.640;2022-11-20T06:50:36;8.00;93.40
68691;DHT22;55675;49.588;8.640;2022-11-20T06:53:02;7.90;93.30
68691;DHT22;55675;49.588;8.640;2022-11-20T06:55:28;7.80;93.40
68691;DHT22;55675;49.588;8.640;2022-11-20T06:57:54;7.80;93.70
68691;DHT22;55675;49.588;8.640;2022-11-20T07:00:19;7.80;93.80
68691;DHT22;55675;49.588;8.640;2022-11-20T07:02:45;7.70;93.60
68691;DHT22;55675;49.588;8.640;2022-11-20T07:05:10;7.60;93.80
68691;DHT22;55675;49.588;8.640;2022-11-20T07:07:36;7.60;93.90
68691;DHT22;55675;49.588;8.640;2022-11-20T07:10:01;7.60;94.00
68691;DHT22;55675;49.588;8.640;2022-11-20T07:12:27;7.70;94.00
68691;DHT22;55675;49.588;8.640;2022-11-20T07:14:52;7.70;94.00
68691;DHT22;55675;49.588;8.640;2022-11-20T07:17:18;7.80;94.00
68691;DHT22;55675;49.588;8.640;2022-11-20T07:19:43;7.90;94.00
68691;DHT22;55675;49.588;8.640;2022-11-20T07:22:09;7.90;93.90
68691;DHT22;55675;49.588;8.640;2022-11-20T07:24:34;7.90;93.90
68691;DHT22;55675;49.588;8.640;2022-11-20T07:27:00;8.00;93.80
68691;DHT22;55675;49.588;8.640;2022-11-20T07:29:26;8.00;93.80
68691;DHT22;55675;49.588;8.640;2022-11-20T07:31:51;8.00;93.60
68691;DHT22;55675;49.588;8.640;2022-11-20T07:34:17;8.00;93.60
68691;DHT22;55675;49.588;8.640;2022-11-20T07:36:42;8.10;93.70
68691;DHT22;55675;49.588;8.640;2022-11-20T07:39:08;8.20;93.80
68691;DHT22;55675;49.588;8.640;2022-11-20T07:41:33;8.20;93.60
68691;DHT22;55675;49.588;8.640;2022-11-20T07:43:59;8.20;93.50
68691;DHT22;55675;49.588;8.640;2022-11-20T07:46:24;8.20;93.60
68691;DHT22;55675;49.588;8.640;2022-11-20T07:48:50;8.30;93.70
68691;DHT22;55675;49.588;8.640;2022-11-20T07:51:15;8.40;93.70
68691;DHT22;55675;49.588;8.640;2022-11-20T07:53:41;8.40;93.70
68691;DHT22;55675;49.588;8.640;2022-11-20T07:56:06;8.50;93.60
68691;DHT22;55675;49.588;8.640;2022-11-20T07:58:32;8.50;93.60
68691;DHT22;55675;49.588;8.640;2022-11-20T08:01:05;8.60;93.60
68691;DHT22;55675;49.588;8.640;2022-11-20T08:03:32;8.60;93.60
68691;DHT22;55675;49.588;8.640;2022-11-20T08:06:01;8.70;93.60
68691;DHT22;55675;49.588;8.640;2022-11-20T08:08:27;8.70;93.50
68691;DHT22;55675;49.588;8.640;2022-11-20T08:10:53;8.60;93.40
68691;DHT22;55675;49.588;8.640;2022-11-20T08:13:38;8.60;93.30
68691;DHT22;55675;49.588;8.640;2022-11-20T08:16:22;8.50;93.10
68691;DHT22;55675;49.588;8.640;2022-11-20T08:18:48;8.40;93.10
68691;DHT22;55675;49.588;8.640;2022-11-20T08:21:13;8.30;93.10
68691;DHT22;55675;49.588;8.640;2022-11-20T08:23:39;8.20;93.30
68691;DHT22;55675;49.588;8.640;2022-11-20T08:26:04;8.10;93.40
68691;DHT22;55675;49.588;8.640;2022-11-20T08:28:30;8.00;93.70
68691;DHT22;55675;49.588;8.640;2022-11-20T08:31:02;8.10;93.80
68691;DHT22;55675;49.588;8.640;2022-11-20T08:33:29;8.00;93.80
68691;DHT22;55675;49.588;8.640;2022-11-20T08:36:01;8.00;93.70
68691;DHT22;55675;49.588;8.640;2022-11-20T08:38:28;8.00;93.80
68691;DHT22;55675;49.588;8.640;2022-11-20T08:40:57;8.00;93.70
68691;DHT22;55675;49.588;8.640;2022-11-20T08:43:41;8.00;93.60
68691;DHT22;55675;49.588;8.640;2022-11-20T08:46:07;8.00;93.70
68691;DHT22;55675;49.588;8.640;2022-11-20T08:48:32;8.00;93.70
68691;DHT22;55675;49.588;8.640;2022-11-20T08:50:58;8.00;93.70
68691;DHT22;55675;49.588;8.640;2022-11-20T08:53:24;7.90;93.60
68691;DHT22;55675;49.588;8.640;2022-11-20T08:55:50;7.80;93.80
68691;DHT22;55675;49.588;8.640;2022-11-20T08:58:16;7.80;93.90
68691;DHT22;55675;49.588;8.640;2022-11-20T09:00:41;7.90;93.90
68691;DHT22;55675;49.588;8.640;2022-11-20T09:03:06;8.00;93.90
68691;DHT22;55675;49.588;8.640;2022-11-20T09:05:32;8.10;93.80
68691;DHT22;55675;49.588;8.640;2022-11-20T09:07:58;8.10;93.90
68691;DHT22;55675;49.588;8.640;2022-11-20T09:10:24;8.20;93.80
68691;DHT22;55675;49.588;8.640;2022-11-20T09:12:50;8.20;93.70
68691;DHT22;55675;49.588;8.640;2022-11-20T09:15:17;8.30;93.50
68691;DHT22;55675;49.588;8.640;2022-11-20T09:17:49;8.30;93.40
68691;DHT22;55675;49.588;8.640;2022-11-20T09:20:15;8.30;93.50
68691;DHT22;55675;49.588;8.640;2022-11-20T09:22:41;8.30;93.30
68691;DHT22;55675;49.588;8.640;2022-11-20T09:25:07;8.30;93.40
68691;DHT22;55675;49.588;8.640;2022-11-20T09:27:33;8.30;93.40
68691;DHT22;55675;49.588;8.640;2022-11-20T09:29:58;8.40;93.40
68691;DHT22;55675;49.588;8.640;2022-11-20T09:32:24;8.50;93.20
68691;DHT22;55675;49.588;8.640;2022-11-20T09:34:49;8.50;92.90
68691;DHT22;55675;49.588;8.640;2022-11-20T09:37:15;8.50;93.00
68691;DHT22;55675;49.588;8.640;2022-11-20T09:39:40;8.50;93.10
68691;DHT22;55675;49.588;8.640;2022-11-20T09:55:30;8.60;92.40
68691;DHT22;55675;49.588;8.640;2022-11-20T09:57:57;8.60;92.30
68691;DHT22;55675;49.588;8.640;2022-11-20T10:00:24;8.60;92.50
68691;DHT22;55675;49.588;8.640;2022-11-20T10:03:26;8.60;92.50
68691;DHT22;55675;49.588;8.640;2022-11-20T10:05:56;8.70;92.60
68691;DHT22;55675;49.588;8.640;2022-11-20T10:08:47;8.80;92.50
68691;DHT22;55675;49.588;8.640;2022-11-20T10:11:48;8.80;92.50
68691;DHT22;55675;49.588;8.640;2022-11-20T10:14:26;8.80;92.40
68691;DHT22;55675;49.588;8.640;2022-11-20T10:26:03;8.90;92.60
68691;DHT22;55675;49.588;8.640;2022-11-20T10:31:41;8.90;92.40
68691;DHT22;55675;49.588;8.640;2022-11-20T10:34:22;8.90;92.50
68691;DHT22;55675;49.588;8.640;2022-11-20T10:37:00;9.00;92.60
68691;DHT22;55675;49.588;8.640;2022-11-20T10:39:38;9.00;92.40
68691;DHT22;55675;49.588;8.640;2022-11-20T10:42:09;9.00;92.30
68691;DHT22;55675;49.588;8.640;2022-11-20T10:44:36;9.00;92.20
68691;DHT22;55675;49.588;8.640;2022-11-20T10:47:22;9.10;92.20
68691;DHT22;55675;49.588;8.640;2022-11-20T10:49:53;9.10;92.10
68691;DHT22;55675;49.588;8.640;2022-11-20T10:52:37;9.10;92.00
68691;DHT22;55675;49.588;8.640;2022-11-20T10:55:27;9.20;92.00
68691;DHT22;55675;49.588;8.640;2022-11-20T10:58:14;9.30;92.00
68691;DHT22;55675;49.588;8.640;2022-11-20T11:00:39;9.40;92.00
68691;DHT22;55675;49.588;8.640;2022-11-20T11:03:22;9.50;92.10
68691;DHT22;55675;49.588;8.640;2022-11-20T11:05:54;9.60;92.00
68691;DHT22;55675;49.588;8.640;2022-11-20T11:08:22;9.60;91.90
68691;DHT22;55675;49.588;8.640;2022-11-20T11:10:55;9.70;91.70
68691;DHT22;55675;49.588;8.640;2022-11-20T11:13:24;9.80;91.90
68691;DHT22;55675;49.588;8.640;2022-11-20T11:15:51;9.80;91.60
68691;DHT22;55675;49.588;8.640;2022-11-20T11:18:31;9.80;91.40
68691;DHT22;55675;49.588;8.640;2022-11-20T11:21:00;9.90;91.50
68691;DHT22;55675;49.588;8.640;2022-11-20T11:23:34;9.90;91.40
68691;DHT22;55675;49.588;8.640;2022-11-20T11:26:03;9.90;91.50
68691;DHT22;55675;49.588;8.640;2022-11-20T11:28:30;9.90;91.20
68691;DHT22;55675;49.588;8.640;2022-11-20T11:30:55;9.90;91.40
68691;DHT22;55675;49.588;8.640;2022-11-20T11:33:30;9.90;91.50
68691;DHT22;55675;49.588;8.640;2022-11-20T11:36:01;9.90;91.50
68691;DHT22;55675;49.588;8.640;2022-11-20T11:38:39;9.80;91.40
68691;DHT22;55675;49.588;8.640;2022-11-20T11:41:08;9.80;91.90
68691;DHT22;55675;49.588;8.640;2022-11-20T11:43:36;9.80;91.50
68691;DHT22;55675;49.588;8.640;2022-11-20T11:46:25;9.90;91.60
68691;DHT22;55675;49.588;8.640;2022-11-20T11:54:47;10.20;91.50
68691;DHT22;55675;49.588;8.640;2022-11-20T11:57:23;10.20;91.60
68691;DHT22;55675;49.588;8.640;2022-11-20T11:59:54;10.20;91.50
68691;DHT22;55675;49.588;8.640;2022-11-20T12:07:55;10.20;91.70
68691;DHT22;55675;49.588;8.640;2022-11-20T12:10:44;10.30;91.70
68691;DHT22;55675;49.588;8.640;2022-11-20T12:13:34;10.40;91.70
68691;DHT22;55675;49.588;8.640;2022-11-20T12:16:03;10.50;91.70
68691;DHT22;55675;49.588;8.640;2022-11-20T12:18:29;10.50;91.70
68691;DHT22;55675;49.588;8.640;2022-11-20T12:21:18;10.60;91.70
68691;DHT22;55675;49.588;8.640;2022-11-20T12:24:10;10.70;91.40
68691;DHT22;55675;49.588;8.640;2022-11-20T12:30:02;10.70;91.40
68691;DHT22;55675;49.588;8.640;2022-11-20T12:48:41;10.40;91.30
68691;DHT22;55675;49.588;8.640;2022-11-20T12:54:05;10.40;91.60
68691;DHT22;55675;49.588;8.640;2022-11-20T12:59:29;10.40;91.70
68691;DHT22;55675;49.588;8.640;2022-11-20T13:02:18;10.30;91.70
68691;DHT22;55675;49.588;8.640;2022-11-20T13:05:11;10.30;92.00
68691;DHT22;55675;49.588;8.640;2022-11-20T13:07:43;10.30;92.00
68691;DHT22;55675;49.588;8.640;2022-11-20T13:12:50;10.20;92.30
68691;DHT22;55675;49.588;8.640;2022-11-20T13:17:59;10.30;92.60
68691;DHT22;55675;49.588;8.640;2022-11-20T13:20:26;10.30;92.60
68691;DHT22;55675;49.588;8.640;2022-11-20T13:22:53;10.40;92.80
68691;DHT22;55675;49.588;8.640;2022-11-20T13:28:04;10.60;92.70
68691;DHT22;55675;49.588;8.640;2022-11-20T13:30:31;10.70;92.70
68691;DHT22;55675;49.588;8.640;2022-11-20T13:32:58;10.80;92.70
68691;DHT22;55675;49.588;8.640;2022-11-20T13:35:30;10.80;92.70
68691;DHT22;55675;49.588;8.640;2022-11-20T13:38:14;10.90;92.90
68691;DHT22;55675;49.588;8.640;2022-11-20T13:40:58;10.90;92.80
68691;DHT22;55675;49.588;8.640;2022-11-20T13:43:42;11.00;92.80
68691;DHT22;55675;49.588;8.640;2022-11-20T13:46:09;11.00;92.80
68691;DHT22;55675;49.588;8.640;2022-11-20T13:48:41;11.10;92.70
68691;DHT22;55675;49.588;8.640;2022-11-20T13:57:06;11.50;92.80
68691;DHT22;55675;49.588;8.640;2022-11-20T14:02:13;11.90;92.50
68691;DHT22;55675;49.588;8.640;2022-11-20T14:04:43;12.10;92.20
68691;DHT22;55675;49.588;8.640;2022-11-20T14:07:10;12.20;92.00
68691;DHT22;55675;49.588;8.640;2022-11-20T14:09:36;12.30;91.80
68691;DHT22;55675;49.588;8.640;2022-11-20T14:12:03;12.30;91.40
68691;DHT22;55675;49.588;8.640;2022-11-20T14:14:30;12.30;91.40
68691;DHT22;55675;49.588;8.640;2022-11-20T14:19:47;12.30;91.50
68691;DHT22;55675;49.588;8.640;2022-11-20T14:22:27;12.20;91.50
68691;DHT22;55675;49.588;8.640;2022-11-20T14:27:39;12.20;91.50
68691;DHT22;55675;49.588;8.640;2022-11-20T14:30:15;12.10;91.40
68691;DHT22;55675;49.588;8.640;2022-11-20T14:32:43;12.10;91.50
68691;DHT22;55675;49.588;8.640;2022-11-20T14:35:14;12.10;91.70
68691;DHT22;55675;49.588;8.640;2022-11-20T14:37:40;12.10;91.80
68691;DHT22;55675;49.588;8.640;2022-11-20T14:40:24;12.00;91.80
68691;DHT22;55675;49.588;8.640;2022-11-20T14:42:50;11.90;91.80
68691;DHT22;55675;49.588;8.640;2022-11-20T14:45:16;11.80;91.80
68691;DHT22;55675;49.588;8.640;2022-11-20T14:47:42;11.70;91.80
68691;DHT22;55675;49.588;8.640;2022-11-20T14:50:16;11.60;91.90
68691;DHT22;55675;49.588;8.640;2022-11-20T14:52:51;11.60;92.00
68691;DHT22;55675;49.588;8.640;2022-11-20T14:55:34;11.50;92.00
68691;DHT22;55675;49.588;8.640;2022-11-20T14:58:21;11.40;92.10
68691;DHT22;55675;49.588;8.640;2022-11-20T15:03:20;11.20;92.20
68691;DHT22;55675;49.588;8.640;2022-11-20T15:05:48;11.10;92.20
68691;DHT22;55675;49.588;8.640;2022-11-20T15:08:14;11.00;92.30
68691;DHT22;55675;49.588;8.640;2022-11-20T15:10:51;10.90;92.40
68691;DHT22;55675;49.588;8.640;2022-11-20T15:13:36;10.80;92.50
68691;DHT22;55675;49.588;8.640;2022-11-20T15:16:03;10.60;91.80
68691;DHT22;55675;49.588;8.640;2022-11-20T15:18:38;10.50;91.60
68691;DHT22;55675;49.588;8.640;2022-11-20T15:21:12;10.40;91.30
68691;DHT22;55675;49.588;8.640;2022-11-20T15:23:38;10.20;90.90
68691;DHT22;55675;49.588;8.640;2022-11-20T15:26:11;10.10;90.70
68691;DHT22;55675;49.588;8.640;2022-11-20T15:28:40;10.00;90.70
68691;DHT22;55675;49.588;8.640;2022-11-20T15:31:06;9.80;91.00
68691;DHT22;55675;49.588;8.640;2022-11-20T15:33:32;9.80;91.00
68691;DHT22;55675;49.588;8.640;2022-11-20T15:35:59;9.80;91.10
68691;DHT22;55675;49.588;8.640;2022-11-20T15:38:24;9.70;90.80
68691;DHT22;55675;49.588;8.640;2022-11-20T15:40:50;9.70;90.70
68691;DHT22;55675;49.588;8.640;2022-11-20T15:43:16;9.60;90.70
68691;DHT22;55675;49.588;8.640;2022-11-20T15:45:47;9.60;90.80
68691;DHT22;55675;49.588;8.640;2022-11-20T15:53:28;9.50;90.90
68691;DHT22;55675;49.588;8.640;2022-11-20T15:55:54;9.50;90.90
68691;DHT22;55675;49.588;8.640;2022-11-20T15:58:19;9.50;91.00
68691;DHT22;55675;49.588;8.640;2022-11-20T16:00:45;9.50;91.00
68691;DHT22;55675;49.588;8.640;2022-11-20T16:03:12;9.60;91.30
68691;DHT22;55675;49.588;8.640;2022-11-20T16:05:38;9.60;91.30
68691;DHT22;55675;49.588;8.640;2022-11-20T16:08:03;9.60;91.40
68691;DHT22;55675;49.588;8.640;2022-11-20T16:10:29;9.60;91.40
68691;DHT22;55675;49.588;8.640;2022-11-20T16:12:54;9.70;91.50
68691;DHT22;55675;49.588;8.640;2022-11-20T16:15:39;9.70;91.70
68691;DHT22;55675;49.588;8.640;2022-11-20T16:18:11;9.70;91.60
68691;DHT22;55675;49.588;8.640;2022-11-20T16:20:37;9.70;91.70
68691;DHT22;55675;49.588;8.640;2022-11-20T16:23:04;9.70;91.70
68691;DHT22;55675;49.588;8.640;2022-11-20T16:25:29;9.70;91.90
68691;DHT22;55675;49.588;8.640;2022-11-20T16:27:55;9.70;91.90
68691;DHT22;55675;49.588;8.640;2022-11-20T16:30:20;9.70;91.90
68691;DHT22;55675;49.588;8.640;2022-11-20T16:32:46;9.80;91.90
68691;DHT22;55675;49.588;8.640;2022-11-20T16:35:11;9.80;91.90
68691;DHT22;55675;49.588;8.640;2022-11-20T16:37:37;9.80;91.60
68691;DHT22;55675;49.588;8.640;2022-11-20T16:40:04;9.70;91.50
68691;DHT22;55675;49.588;8.640;2022-11-20T16:42:33;9.80;91.60
68691;DHT22;55675;49.588;8.640;2022-11-20T16:44:59;9.70;91.80
68691;DHT22;55675;49.588;8.640;2022-11-20T16:47:25;9.70;91.60
68691;DHT22;55675;49.588;8.640;2022-11-20T16:49:50;9.70;91.30
68691;DHT22;55675;49.588;8.640;2022-11-20T16:52:16;9.60;91.40
68691;DHT22;55675;49.588;8.640;2022-11-20T16:54:41;9.60;91.40
68691;DHT22;55675;49.588;8.640;2022-11-20T16:57:07;9.60;91.30
68691;DHT22;55675;49.588;8.640;2022-11-20T16:59:32;9.60;91.40
68691;DHT22;55675;49.588;8.640;2022-11-20T17:01:58;9.50;91.50
68691;DHT22;55675;49.588;8.640;2022-11-20T17:04:24;9.50;91.40
68691;DHT22;55675;49.588;8.640;2022-11-20T17:06:49;9.50;91.30
68691;DHT22;55675;49.588;8.640;2022-11-20T17:09:15;9.50;91.20
68691;DHT22;55675;49.588;8.640;2022-11-20T17:11:40;9.50;91.40
68691;DHT22;55675;49.588;8.640;2022-11-20T17:14:06;9.50;91.40
68691;DHT22;55675;49.588;8.640;2022-11-20T17:16:34;9.50;91.40
68691;DHT22;55675;49.588;8.640;2022-11-20T17:19:00;9.60;91.40
68691;DHT22;55675;49.588;8.640;2022-11-20T17:21:27;9.60;91.40
68691;DHT22;55675;49.588;8.640;2022-11-20T17:23:54;9.60;91.60
68691;DHT22;55675;49.588;8.640;2022-11-20T17:26:22;9.60;91.70